HEAX/ALY METAR and TAF weather

Enter ICAO airport designator
Station Type Date Time Source
HEAX METAR 2023/08/09 11:00 UTC NOAA

HEAX 091100Z 35010KT 9999 SCT020 32/21 Q1010 NOSIG


Station Type Date Time Source
HEAX Decoded METAR 2023/08/09 11:00 UTC NOAA

Alexandria / Nouzha, Egypt (HEAX) 31-12N 029-57E 7M
Aug 09, 2023 - 07:00 AM EDT / 2023.08.09 1100 UTC
Wind: from the N (350 degrees) at 12 MPH (10 KT):0
Visibility: greater than 7 mile(s):0
Sky conditions: partly cloudy
Temperature: 89 F (32 C)
Dew Point: 69 F (21 C)
Relative Humidity: 52%
Pressure (altimeter): 29.83 in. Hg (1010 hPa)
ob: HEAX 091100Z 35010KT 9999 SCT020 32/21 Q1010 NOSIG
cycle: 11

Station Type Date Time Source
HEAX TAF 2023/10/15 12:47 UTC NOAA